sensor_id;sensor_type;location;lat;lon;timestamp;pressure;altitude;pressure_sealevel;temperature;humidity
6090;BME280;3073;42.660;23.316;2023-04-08T00:01:02;94557.66;;;18.71;37.08
6090;BME280;3073;42.660;23.316;2023-04-08T00:03:29;94555.22;;;19.34;36.37
6090;BME280;3073;42.660;23.316;2023-04-08T00:05:58;94559.22;;;19.40;36.46
6090;BME280;3073;42.660;23.316;2023-04-08T00:08:27;94562.09;;;19.38;36.67
6090;BME280;3073;42.660;23.316;2023-04-08T00:10:57;94557.13;;;19.42;36.81
6090;BME280;3073;42.660;23.316;2023-04-08T00:13:24;94559.88;;;19.73;36.56
6090;BME280;3073;42.660;23.316;2023-04-08T00:15:51;94557.81;;;19.97;36.15
6090;BME280;3073;42.660;23.316;2023-04-08T00:18:18;94557.66;;;19.80;35.94
6090;BME280;3073;42.660;23.316;2023-04-08T00:20:45;94556.84;;;19.93;36.08
6090;BME280;3073;42.660;23.316;2023-04-08T00:23:13;94557.63;;;19.44;36.27
6090;BME280;3073;42.660;23.316;2023-04-08T00:25:40;94559.03;;;19.09;36.64
6090;BME280;3073;42.660;23.316;2023-04-08T00:28:07;94552.44;;;19.44;36.42
6090;BME280;3073;42.660;23.316;2023-04-08T00:30:35;94555.22;;;19.34;36.17
6090;BME280;3073;42.660;23.316;2023-04-08T00:33:02;94552.69;;;19.29;36.29
6090;BME280;3073;42.660;23.316;2023-04-08T00:35:29;94565.16;;;17.18;39.72
6090;BME280;3073;42.660;23.316;2023-04-08T00:37:56;94563.69;;;17.78;39.26
6090;BME280;3073;42.660;23.316;2023-04-08T00:40:24;94563.56;;;17.22;39.92
6090;BME280;3073;42.660;23.316;2023-04-08T00:42:51;94554.59;;;18.18;38.68
6090;BME280;3073;42.660;23.316;2023-04-08T00:45:17;94558.03;;;18.13;38.84
6090;BME280;3073;42.660;23.316;2023-04-08T00:47:44;94567.31;;;17.95;38.92
6090;BME280;3073;42.660;23.316;2023-04-08T00:50:17;94564.47;;;17.55;39.37
6090;BME280;3073;42.660;23.316;2023-04-08T00:52:44;94567.56;;;18.50;38.34
6090;BME280;3073;42.660;23.316;2023-04-08T00:55:11;94567.91;;;18.25;38.41
6090;BME280;3073;42.660;23.316;2023-04-08T00:57:40;94562.63;;;18.67;37.96
6090;BME280;3073;42.660;23.316;2023-04-08T01:00:09;94563.22;;;18.78;37.52
6090;BME280;3073;42.660;23.316;2023-04-08T01:02:44;94565.84;;;19.32;37.06
6090;BME280;3073;42.660;23.316;2023-04-08T01:05:14;94574.38;;;19.33;37.13
6090;BME280;3073;42.660;23.316;2023-04-08T01:07:47;94575.44;;;19.45;36.10
6090;BME280;3073;42.660;23.316;2023-04-08T01:10:16;94574.97;;;19.43;36.49
6090;BME280;3073;42.660;23.316;2023-04-08T01:12:49;94567.00;;;19.67;36.18
6090;BME280;3073;42.660;23.316;2023-04-08T01:15:17;94563.53;;;19.58;36.38
6090;BME280;3073;42.660;23.316;2023-04-08T01:17:45;94572.47;;;19.52;36.79
6090;BME280;3073;42.660;23.316;2023-04-08T01:20:14;94571.47;;;19.75;36.59
6090;BME280;3073;42.660;23.316;2023-04-08T01:22:54;94575.72;;;19.58;37.29
6090;BME280;3073;42.660;23.316;2023-04-08T01:25:28;94569.28;;;19.69;36.60
6090;BME280;3073;42.660;23.316;2023-04-08T01:27:59;94570.63;;;19.66;36.93
6090;BME280;3073;42.660;23.316;2023-04-08T01:30:27;94583.00;;;19.15;37.23
6090;BME280;3073;42.660;23.316;2023-04-08T01:32:56;94568.03;;;18.98;36.91
6090;BME280;3073;42.660;23.316;2023-04-08T01:35:25;94570.50;;;18.25;37.93
6090;BME280;3073;42.660;23.316;2023-04-08T01:37:52;94568.03;;;18.84;36.52
6090;BME280;3073;42.660;23.316;2023-04-08T01:40:20;94574.56;;;19.23;36.45
6090;BME280;3073;42.660;23.316;2023-04-08T01:42:48;94572.16;;;19.40;36.21
6090;BME280;3073;42.660;23.316;2023-04-08T01:45:18;94567.88;;;19.49;35.66
6090;BME280;3073;42.660;23.316;2023-04-08T01:47:45;94575.72;;;19.17;35.97
6090;BME280;3073;42.660;23.316;2023-04-08T01:50:14;94570.75;;;19.47;36.04
6090;BME280;3073;42.660;23.316;2023-04-08T01:52:43;94569.59;;;19.53;35.89
6090;BME280;3073;42.660;23.316;2023-04-08T01:55:11;94572.28;;;19.48;35.58
6090;BME280;3073;42.660;23.316;2023-04-08T01:57:38;94568.41;;;19.73;35.97
6090;BME280;3073;42.660;23.316;2023-04-08T02:00:09;94571.00;;;19.73;35.64
6090;BME280;3073;42.660;23.316;2023-04-08T02:02:41;94569.94;;;19.74;35.75
6090;BME280;3073;42.660;23.316;2023-04-08T02:05:08;94583.59;;;20.02;35.31
6090;BME280;3073;42.660;23.316;2023-04-08T02:07:35;94584.31;;;19.80;35.52
6090;BME280;3073;42.660;23.316;2023-04-08T02:10:03;94581.25;;;19.78;35.78
6090;BME280;3073;42.660;23.316;2023-04-08T02:12:30;94588.59;;;19.85;35.78
6090;BME280;3073;42.660;23.316;2023-04-08T02:14:59;94600.38;;;20.04;35.26
6090;BME280;3073;42.660;23.316;2023-04-08T02:17:32;94591.91;;;20.13;35.20
6090;BME280;3073;42.660;23.316;2023-04-08T02:20:05;94591.06;;;20.03;35.00
6090;BME280;3073;42.660;23.316;2023-04-08T02:22:38;94599.63;;;20.04;35.21
6090;BME280;3073;42.660;23.316;2023-04-08T02:25:10;94588.13;;;19.96;35.22
6090;BME280;3073;42.660;23.316;2023-04-08T02:27:38;94599.25;;;19.97;35.40
6090;BME280;3073;42.660;23.316;2023-04-08T02:30:07;94593.13;;;19.79;35.54
6090;BME280;3073;42.660;23.316;2023-04-08T02:32:36;94589.66;;;19.97;35.59
6090;BME280;3073;42.660;23.316;2023-04-08T02:35:05;94593.84;;;20.07;35.51
6090;BME280;3073;42.660;23.316;2023-04-08T02:37:33;94594.25;;;20.00;35.21
6090;BME280;3073;42.660;23.316;2023-04-08T02:40:00;94599.09;;;19.66;35.45
6090;BME280;3073;42.660;23.316;2023-04-08T02:42:27;94601.75;;;18.93;36.68
6090;BME280;3073;42.660;23.316;2023-04-08T02:44:55;94595.91;;;18.87;37.10
6090;BME280;3073;42.660;23.316;2023-04-08T02:47:22;94599.66;;;19.09;37.01
6090;BME280;3073;42.660;23.316;2023-04-08T02:49:49;94596.59;;;19.07;36.99
6090;BME280;3073;42.660;23.316;2023-04-08T02:52:19;94591.03;;;19.13;36.71
6090;BME280;3073;42.660;23.316;2023-04-08T02:54:46;94594.66;;;18.98;37.09
6090;BME280;3073;42.660;23.316;2023-04-08T02:57:13;94597.00;;;18.68;37.29
6090;BME280;3073;42.660;23.316;2023-04-08T02:59:41;94594.88;;;18.19;38.34
6090;BME280;3073;42.660;23.316;2023-04-08T03:02:08;94604.19;;;17.11;40.02
6090;BME280;3073;42.660;23.316;2023-04-08T03:04:35;94599.81;;;18.52;38.35
6090;BME280;3073;42.660;23.316;2023-04-08T03:07:01;94601.38;;;17.97;38.72
6090;BME280;3073;42.660;23.316;2023-04-08T03:09:30;94602.25;;;18.25;38.45
6090;BME280;3073;42.660;23.316;2023-04-08T03:11:57;94597.50;;;17.58;39.96
6090;BME280;3073;42.660;23.316;2023-04-08T03:14:23;94594.63;;;18.71;38.46
6090;BME280;3073;42.660;23.316;2023-04-08T03:16:50;94591.22;;;19.03;37.92
6090;BME280;3073;42.660;23.316;2023-04-08T03:19:17;94592.44;;;18.92;37.43
6090;BME280;3073;42.660;23.316;2023-04-08T03:21:44;94595.41;;;18.85;38.13
6090;BME280;3073;42.660;23.316;2023-04-08T03:24:12;94594.59;;;18.58;37.82
6090;BME280;3073;42.660;23.316;2023-04-08T03:26:40;94592.88;;;18.48;38.05
6090;BME280;3073;42.660;23.316;2023-04-08T03:29:07;94592.00;;;18.20;39.00
6090;BME280;3073;42.660;23.316;2023-04-08T03:31:35;94597.97;;;17.60;40.22
6090;BME280;3073;42.660;23.316;2023-04-08T03:34:03;94596.56;;;18.93;38.25
6090;BME280;3073;42.660;23.316;2023-04-08T03:36:31;94597.69;;;17.37;40.62
6090;BME280;3073;42.660;23.316;2023-04-08T03:38:58;94604.38;;;18.74;38.39
6090;BME280;3073;42.660;23.316;2023-04-08T03:41:24;94595.97;;;18.50;39.05
6090;BME280;3073;42.660;23.316;2023-04-08T03:43:53;94603.69;;;19.01;38.30
6090;BME280;3073;42.660;23.316;2023-04-08T03:46:20;94595.84;;;19.33;37.50
6090;BME280;3073;42.660;23.316;2023-04-08T03:48:47;94592.69;;;19.50;37.49
6090;BME280;3073;42.660;23.316;2023-04-08T03:51:14;94594.03;;;19.75;36.75
6090;BME280;3073;42.660;23.316;2023-04-08T03:53:41;94593.25;;;19.74;36.65
6090;BME280;3073;42.660;23.316;2023-04-08T03:56:09;94588.56;;;19.49;37.09
6090;BME280;3073;42.660;23.316;2023-04-08T03:58:36;94594.13;;;19.56;36.97
6090;BME280;3073;42.660;23.316;2023-04-08T04:01:04;94593.34;;;19.56;36.68
6090;BME280;3073;42.660;23.316;2023-04-08T04:03:31;94599.78;;;19.31;36.69
6090;BME280;3073;42.660;23.316;2023-04-08T04:05:58;94594.03;;;19.61;36.61
6090;BME280;3073;42.660;23.316;2023-04-08T04:08:25;94596.63;;;19.61;36.46
6090;BME280;3073;42.660;23.316;2023-04-08T04:10:51;94591.84;;;19.41;36.75
6090;BME280;3073;42.660;23.316;2023-04-08T04:13:18;94589.53;;;19.67;36.57
6090;BME280;3073;42.660;23.316;2023-04-08T04:15:46;94598.91;;;19.63;36.95
6090;BME280;3073;42.660;23.316;2023-04-08T04:18:14;94593.75;;;19.49;36.39
6090;BME280;3073;42.660;23.316;2023-04-08T04:20:41;94605.72;;;18.85;37.83
6090;BME280;3073;42.660;23.316;2023-04-08T04:23:08;94610.59;;;19.33;37.40
6090;BME280;3073;42.660;23.316;2023-04-08T04:25:35;94608.41;;;19.67;37.10
6090;BME280;3073;42.660;23.316;2023-04-08T04:28:04;94610.50;;;19.79;36.92
6090;BME280;3073;42.660;23.316;2023-04-08T04:30:30;94604.63;;;19.87;36.64
6090;BME280;3073;42.660;23.316;2023-04-08T04:32:57;94608.91;;;20.05;36.39
6090;BME280;3073;42.660;23.316;2023-04-08T04:35:26;94605.38;;;20.01;36.49
6090;BME280;3073;42.660;23.316;2023-04-08T04:37:53;94604.31;;;20.02;36.12
6090;BME280;3073;42.660;23.316;2023-04-08T04:40:19;94606.50;;;20.09;36.02
6090;BME280;3073;42.660;23.316;2023-04-08T04:42:46;94603.81;;;20.14;35.88
6090;BME280;3073;42.660;23.316;2023-04-08T04:45:13;94609.63;;;19.83;35.36
6090;BME280;3073;42.660;23.316;2023-04-08T04:47:40;94607.16;;;20.28;35.12
6090;BME280;3073;42.660;23.316;2023-04-08T04:50:08;94609.75;;;20.14;35.05
6090;BME280;3073;42.660;23.316;2023-04-08T04:52:36;94614.34;;;20.31;35.34
6090;BME280;3073;42.660;23.316;2023-04-08T04:55:04;94617.84;;;20.35;34.95
6090;BME280;3073;42.660;23.316;2023-04-08T04:57:31;94611.53;;;20.41;34.71
6090;BME280;3073;42.660;23.316;2023-04-08T04:59:57;94614.69;;;19.88;35.43
6090;BME280;3073;42.660;23.316;2023-04-08T05:02:24;94621.03;;;18.49;37.85
6090;BME280;3073;42.660;23.316;2023-04-08T05:04:51;94625.28;;;19.65;36.38
6090;BME280;3073;42.660;23.316;2023-04-08T05:07:20;94613.81;;;20.07;35.54
6090;BME280;3073;42.660;23.316;2023-04-08T05:09:48;94614.34;;;20.17;35.80
6090;BME280;3073;42.660;23.316;2023-04-08T05:12:15;94619.97;;;19.97;35.39
6090;BME280;3073;42.660;23.316;2023-04-08T05:14:42;94617.03;;;20.12;35.08
6090;BME280;3073;42.660;23.316;2023-04-08T05:17:09;94618.84;;;19.62;35.62
6090;BME280;3073;42.660;23.316;2023-04-08T05:19:36;94618.91;;;19.98;35.52
6090;BME280;3073;42.660;23.316;2023-04-08T05:22:02;94621.19;;;20.13;35.36
6090;BME280;3073;42.660;23.316;2023-04-08T05:24:29;94617.31;;;20.24;35.09
6090;BME280;3073;42.660;23.316;2023-04-08T05:26:58;94617.91;;;19.44;36.30
6090;BME280;3073;42.660;23.316;2023-04-08T05:29:25;94613.66;;;19.76;35.51
6090;BME280;3073;42.660;23.316;2023-04-08T05:31:52;94618.81;;;20.03;35.77
6090;BME280;3073;42.660;23.316;2023-04-08T05:34:20;94617.88;;;19.31;36.98
6090;BME280;3073;42.660;23.316;2023-04-08T05:36:48;94625.78;;;18.61;38.25
6090;BME280;3073;42.660;23.316;2023-04-08T05:39:16;94622.16;;;18.25;38.11
6090;BME280;3073;42.660;23.316;2023-04-08T05:41:43;94618.34;;;19.87;36.24
6090;BME280;3073;42.660;23.316;2023-04-08T05:44:12;94615.19;;;20.26;35.84
6090;BME280;3073;42.660;23.316;2023-04-08T05:46:39;94615.69;;;20.73;35.25
6090;BME280;3073;42.660;23.316;2023-04-08T05:49:06;94615.22;;;21.24;35.06
6090;BME280;3073;42.660;23.316;2023-04-08T05:51:33;94620.75;;;21.08;34.76
6090;BME280;3073;42.660;23.316;2023-04-08T05:54:00;94615.53;;;21.22;34.67
6090;BME280;3073;42.660;23.316;2023-04-08T05:56:27;94615.66;;;21.56;34.26
6090;BME280;3073;42.660;23.316;2023-04-08T05:58:54;94616.25;;;21.62;33.85
6090;BME280;3073;42.660;23.316;2023-04-08T06:01:22;94615.88;;;21.86;33.70
6090;BME280;3073;42.660;23.316;2023-04-08T06:03:50;94604.44;;;21.39;33.95
6090;BME280;3073;42.660;23.316;2023-04-08T06:06:34;94613.78;;;21.96;33.61
6090;BME280;3073;42.660;23.316;2023-04-08T06:09:09;94610.88;;;22.06;33.47
6090;BME280;3073;42.660;23.316;2023-04-08T06:11:45;94614.63;;;21.75;33.46
6090;BME280;3073;42.660;23.316;2023-04-08T06:14:16;94608.34;;;21.67;33.49
6090;BME280;3073;42.660;23.316;2023-04-08T06:16:49;94604.59;;;21.42;33.92
6090;BME280;3073;42.660;23.316;2023-04-08T06:19:25;94609.19;;;21.45;33.75
6090;BME280;3073;42.660;23.316;2023-04-08T06:21:54;94614.47;;;21.71;33.60
6090;BME280;3073;42.660;23.316;2023-04-08T06:24:24;94610.59;;;22.17;33.19
6090;BME280;3073;42.660;23.316;2023-04-08T06:26:51;94612.13;;;22.18;33.17
6090;BME280;3073;42.660;23.316;2023-04-08T06:29:24;94617.94;;;22.57;32.90
6090;BME280;3073;42.660;23.316;2023-04-08T06:31:53;94611.50;;;22.81;32.69
6090;BME280;3073;42.660;23.316;2023-04-08T06:34:20;94618.41;;;22.68;32.75
6090;BME280;3073;42.660;23.316;2023-04-08T06:36:47;94611.50;;;22.21;32.72
6090;BME280;3073;42.660;23.316;2023-04-08T06:39:14;94623.19;;;23.21;31.86
6090;BME280;3073;42.660;23.316;2023-04-08T06:41:45;94618.84;;;22.53;32.63
6090;BME280;3073;42.660;23.316;2023-04-08T06:44:12;94617.16;;;22.14;33.20
6090;BME280;3073;42.660;23.316;2023-04-08T06:46:41;94625.38;;;21.99;33.36
6090;BME280;3073;42.660;23.316;2023-04-08T06:49:10;94617.56;;;21.34;34.04
6090;BME280;3073;42.660;23.316;2023-04-08T06:51:40;94622.53;;;20.11;35.60
6090;BME280;3073;42.660;23.316;2023-04-08T06:54:07;94620.97;;;21.12;34.93
6090;BME280;3073;42.660;23.316;2023-04-08T06:56:34;94625.16;;;21.70;34.41
6090;BME280;3073;42.660;23.316;2023-04-08T06:59:02;94626.22;;;21.21;35.01
6090;BME280;3073;42.660;23.316;2023-04-08T07:01:29;94618.25;;;21.56;34.61
6090;BME280;3073;42.660;23.316;2023-04-08T07:03:56;94624.88;;;21.71;34.59
6090;BME280;3073;42.660;23.316;2023-04-08T07:06:24;94618.94;;;21.88;34.42
6090;BME280;3073;42.660;23.316;2023-04-08T07:08:51;94623.13;;;21.97;34.25
6090;BME280;3073;42.660;23.316;2023-04-08T07:11:18;94619.13;;;22.94;33.37
6090;BME280;3073;42.660;23.316;2023-04-08T07:13:45;94615.94;;;21.16;35.11
6090;BME280;3073;42.660;23.316;2023-04-08T07:16:18;94614.78;;;19.97;36.66
6090;BME280;3073;42.660;23.316;2023-04-08T07:18:46;94632.78;;;20.16;36.77
6090;BME280;3073;42.660;23.316;2023-04-08T07:21:13;94628.06;;;21.29;35.53
6090;BME280;3073;42.660;23.316;2023-04-08T07:23:42;94631.31;;;21.34;35.41
6090;BME280;3073;42.660;23.316;2023-04-08T07:26:09;94634.59;;;22.39;34.56
6090;BME280;3073;42.660;23.316;2023-04-08T07:28:36;94627.38;;;22.62;34.13
6090;BME280;3073;42.660;23.316;2023-04-08T07:31:10;94637.22;;;22.48;34.19
6090;BME280;3073;42.660;23.316;2023-04-08T07:33:37;94636.41;;;23.54;33.05
6090;BME280;3073;42.660;23.316;2023-04-08T07:36:04;94643.16;;;24.55;31.99
6090;BME280;3073;42.660;23.316;2023-04-08T07:38:32;94634.34;;;24.59;31.63
6090;BME280;3073;42.660;23.316;2023-04-08T07:41:00;94638.34;;;24.45;31.64
6090;BME280;3073;42.660;23.316;2023-04-08T07:43:33;94642.41;;;24.54;31.84
6090;BME280;3073;42.660;23.316;2023-04-08T07:46:02;94648.81;;;25.23;31.38
6090;BME280;3073;42.660;23.316;2023-04-08T07:48:32;94647.59;;;24.13;32.35
6090;BME280;3073;42.660;23.316;2023-04-08T07:51:02;94652.91;;;24.99;31.49
6090;BME280;3073;42.660;23.316;2023-04-08T07:53:29;94657.53;;;25.27;31.31
6090;BME280;3073;42.660;23.316;2023-04-08T07:55:56;94653.03;;;25.03;31.33
6090;BME280;3073;42.660;23.316;2023-04-08T07:58:27;94653.16;;;25.19;31.38
6090;BME280;3073;42.660;23.316;2023-04-08T08:00:56;94656.16;;;24.96;31.75
6090;BME280;3073;42.660;23.316;2023-04-08T08:03:24;94659.72;;;25.25;31.67
6090;BME280;3073;42.660;23.316;2023-04-08T08:05:51;94669.81;;;25.59;30.97
6090;BME280;3073;42.660;23.316;2023-04-08T08:08:18;94666.00;;;25.56;30.89
6090;BME280;3073;42.660;23.316;2023-04-08T08:10:45;94660.78;;;25.81;30.72
6090;BME280;3073;42.660;23.316;2023-04-08T08:13:12;94671.44;;;25.19;31.26
6090;BME280;3073;42.660;23.316;2023-04-08T08:15:42;94665.78;;;25.62;31.02
6090;BME280;3073;42.660;23.316;2023-04-08T08:18:09;94670.00;;;25.09;31.07
6090;BME280;3073;42.660;23.316;2023-04-08T08:20:36;94666.19;;;24.94;31.58
6090;BME280;3073;42.660;23.316;2023-04-08T08:23:03;94667.19;;;25.59;30.67
6090;BME280;3073;42.660;23.316;2023-04-08T08:25:30;94660.06;;;24.90;31.37
6090;BME280;3073;42.660;23.316;2023-04-08T08:27:57;94667.47;;;23.97;31.49
6090;BME280;3073;42.660;23.316;2023-04-08T08:30:24;94664.94;;;24.38;31.99
6090;BME280;3073;42.660;23.316;2023-04-08T08:32:53;94672.44;;;25.26;31.08
6090;BME280;3073;42.660;23.316;2023-04-08T08:35:26;94671.34;;;25.60;30.56
6090;BME280;3073;42.660;23.316;2023-04-08T08:37:59;94669.50;;;25.60;30.27
6090;BME280;3073;42.660;23.316;2023-04-08T08:40:26;94671.34;;;25.84;29.81
6090;BME280;3073;42.660;23.316;2023-04-08T08:42:53;94667.47;;;24.88;31.05
6090;BME280;3073;42.660;23.316;2023-04-08T08:45:25;94668.16;;;25.09;31.18
6090;BME280;3073;42.660;23.316;2023-04-08T08:47:53;94659.53;;;24.76;31.92
6090;BME280;3073;42.660;23.316;2023-04-08T08:50:21;94662.47;;;23.37;33.35
6090;BME280;3073;42.660;23.316;2023-04-08T08:52:49;94666.88;;;22.64;34.65
6090;BME280;3073;42.660;23.316;2023-04-08T08:55:17;94673.31;;;24.23;33.17
6090;BME280;3073;42.660;23.316;2023-04-08T08:57:44;94674.22;;;23.98;33.23
6090;BME280;3073;42.660;23.316;2023-04-08T09:00:12;94672.72;;;23.50;33.22
6090;BME280;3073;42.660;23.316;2023-04-08T09:02:40;94670.53;;;22.12;35.03
6090;BME280;3073;42.660;23.316;2023-04-08T09:05:09;94671.75;;;23.64;33.81
6090;BME280;3073;42.660;23.316;2023-04-08T09:07:39;94671.75;;;24.01;33.46
6090;BME280;3073;42.660;23.316;2023-04-08T09:10:08;94671.53;;;24.36;32.58
6090;BME280;3073;42.660;23.316;2023-04-08T09:12:53;94669.00;;;24.48;32.99
6090;BME280;3073;42.660;23.316;2023-04-08T09:15:21;94674.53;;;23.03;34.82
6090;BME280;3073;42.660;23.316;2023-04-08T09:17:48;94676.06;;;23.89;34.35
6090;BME280;3073;42.660;23.316;2023-04-08T09:20:16;94669.16;;;23.93;33.38
6090;BME280;3073;42.660;23.316;2023-04-08T09:22:56;94665.53;;;24.35;33.32
6090;BME280;3073;42.660;23.316;2023-04-08T09:25:24;94668.47;;;24.13;33.53
6090;BME280;3073;42.660;23.316;2023-04-08T09:27:51;94661.75;;;25.19;32.35
6090;BME280;3073;42.660;23.316;2023-04-08T09:30:20;94668.38;;;26.22;31.45
6090;BME280;3073;42.660;23.316;2023-04-08T09:32:51;94655.22;;;26.19;30.89
6090;BME280;3073;42.660;23.316;2023-04-08T09:35:20;94661.88;;;25.10;31.46
6090;BME280;3073;42.660;23.316;2023-04-08T09:37:48;94655.22;;;25.94;30.38
6090;BME280;3073;42.660;23.316;2023-04-08T09:40:15;94657.25;;;27.21;29.31
6090;BME280;3073;42.660;23.316;2023-04-08T09:42:44;94657.44;;;27.90;28.22
6090;BME280;3073;42.660;23.316;2023-04-08T09:45:14;94643.72;;;25.26;29.87
6090;BME280;3073;42.660;23.316;2023-04-08T09:47:50;94649.91;;;26.43;30.24
6090;BME280;3073;42.660;23.316;2023-04-08T09:50:23;94645.91;;;28.10;28.72
6090;BME280;3073;42.660;23.316;2023-04-08T09:52:57;94644.44;;;28.86;27.73
6090;BME280;3073;42.660;23.316;2023-04-08T09:55:29;94632.53;;;29.11;27.12
6090;BME280;3073;42.660;23.316;2023-04-08T09:57:59;94644.91;;;28.15;28.13
6090;BME280;3073;42.660;23.316;2023-04-08T10:00:31;94637.72;;;30.29;27.16
6090;BME280;3073;42.660;23.316;2023-04-08T10:03:04;94630.69;;;30.10;26.99
6090;BME280;3073;42.660;23.316;2023-04-08T10:05:35;94631.03;;;30.35;26.54
6090;BME280;3073;42.660;23.316;2023-04-08T10:08:04;94645.69;;;30.36;26.06
6090;BME280;3073;42.660;23.316;2023-04-08T10:10:33;94642.13;;;26.06;29.90
6090;BME280;3073;42.660;23.316;2023-04-08T10:13:00;94634.25;;;26.31;30.31
6090;BME280;3073;42.660;23.316;2023-04-08T10:15:28;94627.00;;;27.23;29.53
6090;BME280;3073;42.660;23.316;2023-04-08T10:18:30;94640.31;;;25.14;31.04
6090;BME280;3073;42.660;23.316;2023-04-08T10:20:59;94628.06;;;24.40;32.49
6090;BME280;3073;42.660;23.316;2023-04-08T10:23:52;94628.41;;;24.18;32.52
6090;BME280;3073;42.660;23.316;2023-04-08T10:26:29;94629.34;;;24.34;31.99
6090;BME280;3073;42.660;23.316;2023-04-08T10:29:31;94629.03;;;25.46;31.73
6090;BME280;3073;42.660;23.316;2023-04-08T10:31:58;94627.91;;;24.45;32.30
6090;BME280;3073;42.660;23.316;2023-04-08T10:34:26;94618.03;;;23.80;32.96
6090;BME280;3073;42.660;23.316;2023-04-08T10:36:55;94622.78;;;24.07;32.90
6090;BME280;3073;42.660;23.316;2023-04-08T10:39:24;94622.44;;;24.38;32.72
6090;BME280;3073;42.660;23.316;2023-04-08T10:41:53;94617.06;;;25.21;32.30
6090;BME280;3073;42.660;23.316;2023-04-08T10:44:22;94609.44;;;24.29;33.50
6090;BME280;3073;42.660;23.316;2023-04-08T10:46:50;94607.91;;;25.39;32.77
6090;BME280;3073;42.660;23.316;2023-04-08T10:49:18;94606.47;;;25.17;32.73
6090;BME280;3073;42.660;23.316;2023-04-08T10:51:46;94604.78;;;28.53;30.42
6090;BME280;3073;42.660;23.316;2023-04-08T10:54:15;94605.28;;;28.78;28.10
6090;BME280;3073;42.660;23.316;2023-04-08T10:56:44;94603.56;;;29.31;27.94
6090;BME280;3073;42.660;23.316;2023-04-08T10:59:13;94595.53;;;27.07;29.13
6090;BME280;3073;42.660;23.316;2023-04-08T11:01:42;94595.22;;;27.25;29.92
6090;BME280;3073;42.660;23.316;2023-04-08T11:04:14;94589.53;;;27.23;29.37
6090;BME280;3073;42.660;23.316;2023-04-08T11:06:42;94585.38;;;26.62;29.89
6090;BME280;3073;42.660;23.316;2023-04-08T11:09:11;94584.09;;;26.29;30.56
6090;BME280;3073;42.660;23.316;2023-04-08T11:11:40;94581.34;;;25.49;31.28
6090;BME280;3073;42.660;23.316;2023-04-08T11:14:07;94585.03;;;25.96;30.61
6090;BME280;3073;42.660;23.316;2023-04-08T11:16:35;94589.28;;;25.04;31.54
6090;BME280;3073;42.660;23.316;2023-04-08T11:19:03;94572.19;;;23.99;32.55
6090;BME280;3073;42.660;23.316;2023-04-08T11:21:31;94572.41;;;25.14;31.63
6090;BME280;3073;42.660;23.316;2023-04-08T11:24:05;94566.56;;;25.77;30.95
6090;BME280;3073;42.660;23.316;2023-04-08T11:26:34;94571.53;;;27.52;28.95
6090;BME280;3073;42.660;23.316;2023-04-08T11:29:04;94565.56;;;24.31;31.84
6090;BME280;3073;42.660;23.316;2023-04-08T11:31:31;94568.88;;;25.54;30.27
6090;BME280;3073;42.660;23.316;2023-04-08T11:33:58;94567.75;;;25.43;30.22
6090;BME280;3073;42.660;23.316;2023-04-08T11:36:28;94556.22;;;25.44;30.33
6090;BME280;3073;42.660;23.316;2023-04-08T11:38:54;94555.22;;;24.88;31.43
6090;BME280;3073;42.660;23.316;2023-04-08T11:41:21;94559.22;;;27.22;29.33
6090;BME280;3073;42.660;23.316;2023-04-08T11:43:51;94556.66;;;26.10;28.93
6090;BME280;3073;42.660;23.316;2023-04-08T11:46:19;94546.16;;;27.91;27.33
6090;BME280;3073;42.660;23.316;2023-04-08T11:48:59;94544.88;;;29.49;26.44
6090;BME280;3073;42.660;23.316;2023-04-08T11:51:27;94552.25;;;28.53;26.98
6090;BME280;3073;42.660;23.316;2023-04-08T11:53:54;94534.84;;;28.26;27.02
6090;BME280;3073;42.660;23.316;2023-04-08T11:56:22;94530.44;;;27.41;27.64
6090;BME280;3073;42.660;23.316;2023-04-08T11:58:50;94534.72;;;28.38;27.47
6090;BME280;3073;42.660;23.316;2023-04-08T12:01:20;94539.81;;;27.57;27.44
6090;BME280;3073;42.660;23.316;2023-04-08T12:03:57;94534.75;;;25.63;29.69
6090;BME280;3073;42.660;23.316;2023-04-08T12:06:25;94522.22;;;26.64;28.94
6090;BME280;3073;42.660;23.316;2023-04-08T12:08:53;94519.84;;;26.59;29.05
6090;BME280;3073;42.660;23.316;2023-04-08T12:11:21;94523.22;;;25.16;30.08
6090;BME280;3073;42.660;23.316;2023-04-08T12:13:48;94522.38;;;28.38;27.18
6090;BME280;3073;42.660;23.316;2023-04-08T12:16:17;94522.03;;;29.04;25.86
6090;BME280;3073;42.660;23.316;2023-04-08T12:18:45;94514.97;;;28.05;26.45
6090;BME280;3073;42.660;23.316;2023-04-08T12:21:13;94509.50;;;29.21;26.39
6090;BME280;3073;42.660;23.316;2023-04-08T12:23:40;94514.00;;;27.59;28.08
6090;BME280;3073;42.660;23.316;2023-04-08T12:26:08;94498.78;;;26.24;29.21
6090;BME280;3073;42.660;23.316;2023-04-08T12:28:36;94499.50;;;25.21;30.46
6090;BME280;3073;42.660;23.316;2023-04-08T12:31:03;94497.13;;;24.14;31.27
6090;BME280;3073;42.660;23.316;2023-04-08T12:33:30;94507.47;;;24.55;30.89
6090;BME280;3073;42.660;23.316;2023-04-08T12:35:58;94503.44;;;23.71;32.66
6090;BME280;3073;42.660;23.316;2023-04-08T12:38:26;94497.16;;;23.14;33.14
6090;BME280;3073;42.660;23.316;2023-04-08T12:40:52;94500.47;;;25.40;31.42
6090;BME280;3073;42.660;23.316;2023-04-08T12:43:20;94497.50;;;24.03;31.92
6090;BME280;3073;42.660;23.316;2023-04-08T12:45:48;94503.63;;;23.07;32.58
6090;BME280;3073;42.660;23.316;2023-04-08T12:48:14;94502.34;;;22.84;32.54
6090;BME280;3073;42.660;23.316;2023-04-08T12:50:41;94480.78;;;21.51;34.42
6090;BME280;3073;42.660;23.316;2023-04-08T12:53:09;94501.59;;;23.13;32.85
6090;BME280;3073;42.660;23.316;2023-04-08T12:55:36;94500.25;;;23.45;32.38
6090;BME280;3073;42.660;23.316;2023-04-08T12:58:03;94507.16;;;24.03;32.13
6090;BME280;3073;42.660;23.316;2023-04-08T13:00:31;94507.56;;;24.14;31.97
6090;BME280;3073;42.660;23.316;2023-04-08T13:02:58;94515.41;;;25.03;31.34
6090;BME280;3073;42.660;23.316;2023-04-08T13:05:25;94517.13;;;25.36;31.30
6090;BME280;3073;42.660;23.316;2023-04-08T13:07:51;94517.06;;;24.75;31.87
6090;BME280;3073;42.660;23.316;2023-04-08T13:10:20;94520.03;;;26.23;30.40
6090;BME280;3073;42.660;23.316;2023-04-08T13:12:47;94517.59;;;23.82;32.53
6090;BME280;3073;42.660;23.316;2023-04-08T13:15:20;94521.50;;;25.32;31.27
6090;BME280;3073;42.660;23.316;2023-04-08T13:17:47;94513.28;;;25.45;31.55